KROA/ROA METAR and TAF weather

Enter ICAO airport designator
Station Type Date Time Source
KROA METAR 2019/10/23 06:54 UTC NOAA

KROA 230654Z 30012G16KT 10SM CLR 13/04 A2999 RMK AO2 SLP150 T01280039


Station Type Date Time Source
KROA Decoded METAR 2019/10/23 06:54 UTC NOAA

ROANOKE REGIONAL AIRPORT, VA, United States (KROA) 37-19N 079-58W 362M
Oct 23, 2019 - 02:54 AM EDT / 2019.10.23 0654 UTC
Wind: from the WNW (300 degrees) at 14 MPH (12 KT) gusting to 18 MPH (16 KT):0
Visibility: 10 mile(s):0
Sky conditions: clear
Temperature: 55.0 F (12.8 C)
Dew Point: 39.0 F (3.9 C)
Relative Humidity: 54%
Pressure (altimeter): 29.99 in. Hg (1015 hPa)
ob: KROA 230654Z 30012G16KT 10SM CLR 13/04 A2999 RMK AO2 SLP150 T01280039
cycle: 7

Station Type Date Time Source
KROA TAF 2019/10/23 06:51 UTC NOAA

TAF KROA 230538Z 2306/2406 29006KT P6SM SKC
FM231300 29010G17KT P6SM SKC
FM232200 29004KT P6SM SKC

Example: see airport list